sensor_id;sensor_type;location;lat;lon;timestamp;P1;durP1;ratioP1;P2;durP2;ratioP2
52878;SDS011;38747;53.140;6.498;2023-12-29T00:00:14;7.75;;;1.67;;
52878;SDS011;38747;53.140;6.498;2023-12-29T00:02:40;10.88;;;1.75;;
52878;SDS011;38747;53.140;6.498;2023-12-29T00:05:06;9.00;;;1.47;;
52878;SDS011;38747;53.140;6.498;2023-12-29T00:07:32;8.88;;;1.70;;
52878;SDS011;38747;53.140;6.498;2023-12-29T00:09:58;7.87;;;1.40;;
52878;SDS011;38747;53.140;6.498;2023-12-29T00:12:23;9.27;;;1.80;;
52878;SDS011;38747;53.140;6.498;2023-12-29T00:14:49;10.43;;;1.50;;
52878;SDS011;38747;53.140;6.498;2023-12-29T00:17:14;9.75;;;1.75;;
52878;SDS011;38747;53.140;6.498;2023-12-29T00:19:40;9.47;;;2.37;;
52878;SDS011;38747;53.140;6.498;2023-12-29T00:22:06;11.17;;;1.97;;
52878;SDS011;38747;53.140;6.498;2023-12-29T00:24:31;10.23;;;1.95;;
52878;SDS011;38747;53.140;6.498;2023-12-29T00:26:57;9.33;;;1.87;;
52878;SDS011;38747;53.140;6.498;2023-12-29T00:29:24;7.95;;;1.90;;
52878;SDS011;38747;53.140;6.498;2023-12-29T00:31:49;11.43;;;1.70;;
52878;SDS011;38747;53.140;6.498;2023-12-29T00:34:15;8.30;;;1.63;;
52878;SDS011;38747;53.140;6.498;2023-12-29T00:36:40;9.07;;;1.57;;
52878;SDS011;38747;53.140;6.498;2023-12-29T00:39:06;11.68;;;2.13;;
52878;SDS011;38747;53.140;6.498;2023-12-29T00:41:32;7.47;;;1.33;;
52878;SDS011;38747;53.140;6.498;2023-12-29T00:43:57;8.60;;;1.80;;
52878;SDS011;38747;53.140;6.498;2023-12-29T00:46:23;7.50;;;1.30;;
52878;SDS011;38747;53.140;6.498;2023-12-29T00:48:48;8.80;;;1.33;;
52878;SDS011;38747;53.140;6.498;2023-12-29T00:51:14;7.75;;;1.80;;
52878;SDS011;38747;53.140;6.498;2023-12-29T00:53:40;8.67;;;1.43;;
52878;SDS011;38747;53.140;6.498;2023-12-29T00:56:12;11.73;;;1.42;;
52878;SDS011;38747;53.140;6.498;2023-12-29T00:58:38;9.83;;;1.53;;
52878;SDS011;38747;53.140;6.498;2023-12-29T01:01:05;8.32;;;1.20;;
52878;SDS011;38747;53.140;6.498;2023-12-29T01:03:33;11.02;;;2.03;;
52878;SDS011;38747;53.140;6.498;2023-12-29T01:05:58;8.23;;;1.40;;
52878;SDS011;38747;53.140;6.498;2023-12-29T01:08:24;8.77;;;1.90;;
52878;SDS011;38747;53.140;6.498;2023-12-29T01:10:50;5.40;;;1.43;;
52878;SDS011;38747;53.140;6.498;2023-12-29T01:13:15;12.43;;;1.85;;
52878;SDS011;38747;53.140;6.498;2023-12-29T01:15:41;7.37;;;1.33;;
52878;SDS011;38747;53.140;6.498;2023-12-29T01:18:10;10.13;;;1.88;;
52878;SDS011;38747;53.140;6.498;2023-12-29T01:20:36;9.05;;;1.70;;
52878;SDS011;38747;53.140;6.498;2023-12-29T01:23:04;10.75;;;2.10;;
52878;SDS011;38747;53.140;6.498;2023-12-29T01:25:30;7.50;;;1.80;;
52878;SDS011;38747;53.140;6.498;2023-12-29T01:27:55;9.20;;;1.50;;
52878;SDS011;38747;53.140;6.498;2023-12-29T01:30:21;10.87;;;2.10;;
52878;SDS011;38747;53.140;6.498;2023-12-29T01:32:48;10.13;;;1.63;;
52878;SDS011;38747;53.140;6.498;2023-12-29T01:35:14;11.30;;;2.10;;
52878;SDS011;38747;53.140;6.498;2023-12-29T01:37:39;16.37;;;2.13;;
52878;SDS011;38747;53.140;6.498;2023-12-29T01:40:05;10.73;;;1.80;;
52878;SDS011;38747;53.140;6.498;2023-12-29T01:42:31;10.48;;;2.30;;
52878;SDS011;38747;53.140;6.498;2023-12-29T01:44:56;11.50;;;2.30;;
52878;SDS011;38747;53.140;6.498;2023-12-29T01:47:22;6.63;;;1.57;;
52878;SDS011;38747;53.140;6.498;2023-12-29T01:49:48;7.20;;;1.23;;
52878;SDS011;38747;53.140;6.498;2023-12-29T01:52:18;5.30;;;1.05;;
52878;SDS011;38747;53.140;6.498;2023-12-29T01:54:45;7.93;;;1.67;;
52878;SDS011;38747;53.140;6.498;2023-12-29T01:57:14;4.10;;;1.05;;
52878;SDS011;38747;53.140;6.498;2023-12-29T01:59:40;4.65;;;1.00;;
52878;SDS011;38747;53.140;6.498;2023-12-29T02:02:06;6.18;;;1.05;;
52878;SDS011;38747;53.140;6.498;2023-12-29T02:04:32;5.65;;;1.15;;
52878;SDS011;38747;53.140;6.498;2023-12-29T02:06:58;3.03;;;0.80;;
52878;SDS011;38747;53.140;6.498;2023-12-29T02:09:24;2.13;;;0.50;;
52878;SDS011;38747;53.140;6.498;2023-12-29T02:11:50;2.77;;;0.70;;
52878;SDS011;38747;53.140;6.498;2023-12-29T02:14:15;3.28;;;0.60;;
52878;SDS011;38747;53.140;6.498;2023-12-29T02:22:01;5.25;;;0.85;;
52878;SDS011;38747;53.140;6.498;2023-12-29T02:24:27;4.32;;;0.70;;
52878;SDS011;38747;53.140;6.498;2023-12-29T02:26:55;5.70;;;0.90;;
52878;SDS011;38747;53.140;6.498;2023-12-29T02:29:34;9.23;;;1.02;;
52878;SDS011;38747;53.140;6.498;2023-12-29T02:32:03;6.40;;;1.00;;
52878;SDS011;38747;53.140;6.498;2023-12-29T02:34:31;11.47;;;1.27;;
52878;SDS011;38747;53.140;6.498;2023-12-29T02:36:58;8.25;;;0.90;;
52878;SDS011;38747;53.140;6.498;2023-12-29T02:39:24;8.70;;;1.38;;
52878;SDS011;38747;53.140;6.498;2023-12-29T02:41:50;8.60;;;1.05;;
52878;SDS011;38747;53.140;6.498;2023-12-29T02:44:15;7.77;;;1.40;;
52878;SDS011;38747;53.140;6.498;2023-12-29T02:46:41;9.07;;;1.10;;
52878;SDS011;38747;53.140;6.498;2023-12-29T02:49:07;10.83;;;1.87;;
52878;SDS011;38747;53.140;6.498;2023-12-29T02:51:36;9.73;;;1.30;;
52878;SDS011;38747;53.140;6.498;2023-12-29T02:54:02;11.87;;;1.30;;
52878;SDS011;38747;53.140;6.498;2023-12-29T02:56:27;10.27;;;1.63;;
52878;SDS011;38747;53.140;6.498;2023-12-29T02:58:53;14.13;;;1.50;;
52878;SDS011;38747;53.140;6.498;2023-12-29T03:01:19;13.23;;;2.38;;
52878;SDS011;38747;53.140;6.498;2023-12-29T03:03:44;12.67;;;2.20;;
52878;SDS011;38747;53.140;6.498;2023-12-29T03:06:10;12.55;;;1.80;;
52878;SDS011;38747;53.140;6.498;2023-12-29T03:08:35;15.77;;;2.07;;
52878;SDS011;38747;53.140;6.498;2023-12-29T03:11:01;13.70;;;1.80;;
52878;SDS011;38747;53.140;6.498;2023-12-29T03:13:26;13.45;;;2.05;;
52878;SDS011;38747;53.140;6.498;2023-12-29T03:15:52;15.07;;;2.03;;
52878;SDS011;38747;53.140;6.498;2023-12-29T03:18:18;15.27;;;2.38;;
52878;SDS011;38747;53.140;6.498;2023-12-29T03:20:43;11.20;;;2.00;;
52878;SDS011;38747;53.140;6.498;2023-12-29T03:23:09;12.60;;;1.63;;
52878;SDS011;38747;53.140;6.498;2023-12-29T03:25:34;10.63;;;1.85;;
52878;SDS011;38747;53.140;6.498;2023-12-29T03:28:00;12.97;;;1.70;;
52878;SDS011;38747;53.140;6.498;2023-12-29T03:30:26;12.70;;;1.75;;
52878;SDS011;38747;53.140;6.498;2023-12-29T03:32:51;10.90;;;1.87;;
52878;SDS011;38747;53.140;6.498;2023-12-29T03:35:17;16.15;;;2.35;;
52878;SDS011;38747;53.140;6.498;2023-12-29T03:37:42;16.30;;;2.50;;
52878;SDS011;38747;53.140;6.498;2023-12-29T03:40:08;17.30;;;2.10;;
52878;SDS011;38747;53.140;6.498;2023-12-29T03:42:34;17.17;;;1.90;;
52878;SDS011;38747;53.140;6.498;2023-12-29T03:45:00;18.55;;;2.08;;
52878;SDS011;38747;53.140;6.498;2023-12-29T03:47:25;15.50;;;1.70;;
52878;SDS011;38747;53.140;6.498;2023-12-29T03:49:51;17.08;;;2.38;;
52878;SDS011;38747;53.140;6.498;2023-12-29T03:52:17;13.90;;;1.83;;
52878;SDS011;38747;53.140;6.498;2023-12-29T03:54:42;17.50;;;1.93;;
52878;SDS011;38747;53.140;6.498;2023-12-29T03:57:08;18.42;;;1.77;;
52878;SDS011;38747;53.140;6.498;2023-12-29T03:59:36;16.80;;;2.37;;
52878;SDS011;38747;53.140;6.498;2023-12-29T04:02:02;14.32;;;1.75;;
52878;SDS011;38747;53.140;6.498;2023-12-29T04:04:28;12.32;;;2.10;;
52878;SDS011;38747;53.140;6.498;2023-12-29T04:06:53;15.97;;;2.30;;
52878;SDS011;38747;53.140;6.498;2023-12-29T04:09:19;19.23;;;2.13;;
52878;SDS011;38747;53.140;6.498;2023-12-29T04:11:45;15.85;;;1.80;;
52878;SDS011;38747;53.140;6.498;2023-12-29T04:14:11;17.25;;;2.35;;
52878;SDS011;38747;53.140;6.498;2023-12-29T04:16:38;11.93;;;1.50;;
52878;SDS011;38747;53.140;6.498;2023-12-29T04:19:04;18.38;;;2.55;;
52878;SDS011;38747;53.140;6.498;2023-12-29T04:21:29;18.45;;;2.10;;
52878;SDS011;38747;53.140;6.498;2023-12-29T04:23:55;19.97;;;2.70;;
52878;SDS011;38747;53.140;6.498;2023-12-29T04:26:21;13.63;;;1.93;;
52878;SDS011;38747;53.140;6.498;2023-12-29T04:28:46;18.60;;;2.27;;
52878;SDS011;38747;53.140;6.498;2023-12-29T04:31:12;14.23;;;1.87;;
52878;SDS011;38747;53.140;6.498;2023-12-29T04:33:37;14.60;;;1.75;;
52878;SDS011;38747;53.140;6.498;2023-12-29T04:36:03;12.63;;;2.30;;
52878;SDS011;38747;53.140;6.498;2023-12-29T04:38:29;13.73;;;2.28;;
52878;SDS011;38747;53.140;6.498;2023-12-29T04:40:54;20.07;;;1.87;;
52878;SDS011;38747;53.140;6.498;2023-12-29T04:43:20;14.73;;;2.28;;
52878;SDS011;38747;53.140;6.498;2023-12-29T04:45:49;14.25;;;2.00;;
52878;SDS011;38747;53.140;6.498;2023-12-29T04:48:14;14.77;;;2.13;;
52878;SDS011;38747;53.140;6.498;2023-12-29T04:50:40;16.23;;;1.60;;
52878;SDS011;38747;53.140;6.498;2023-12-29T04:53:05;15.57;;;1.92;;
52878;SDS011;38747;53.140;6.498;2023-12-29T04:55:31;12.50;;;2.40;;
52878;SDS011;38747;53.140;6.498;2023-12-29T04:57:57;15.18;;;2.47;;
52878;SDS011;38747;53.140;6.498;2023-12-29T05:00:22;15.50;;;1.67;;
52878;SDS011;38747;53.140;6.498;2023-12-29T05:02:48;11.23;;;1.60;;
52878;SDS011;38747;53.140;6.498;2023-12-29T05:05:15;19.13;;;2.58;;
52878;SDS011;38747;53.140;6.498;2023-12-29T05:07:40;20.55;;;2.15;;
52878;SDS011;38747;53.140;6.498;2023-12-29T05:10:06;17.43;;;1.93;;
52878;SDS011;38747;53.140;6.498;2023-12-29T05:12:32;12.52;;;2.17;;
52878;SDS011;38747;53.140;6.498;2023-12-29T05:14:58;14.90;;;2.00;;
52878;SDS011;38747;53.140;6.498;2023-12-29T05:17:23;15.90;;;1.88;;
52878;SDS011;38747;53.140;6.498;2023-12-29T05:19:49;18.07;;;2.00;;
52878;SDS011;38747;53.140;6.498;2023-12-29T05:22:18;13.60;;;1.90;;
52878;SDS011;38747;53.140;6.498;2023-12-29T05:24:43;19.27;;;2.20;;
52878;SDS011;38747;53.140;6.498;2023-12-29T05:27:10;19.58;;;2.53;;
52878;SDS011;38747;53.140;6.498;2023-12-29T05:29:36;16.85;;;2.10;;
52878;SDS011;38747;53.140;6.498;2023-12-29T05:32:01;15.33;;;2.07;;
52878;SDS011;38747;53.140;6.498;2023-12-29T05:34:27;17.60;;;2.20;;
52878;SDS011;38747;53.140;6.498;2023-12-29T05:36:53;12.97;;;2.00;;
52878;SDS011;38747;53.140;6.498;2023-12-29T05:39:19;13.40;;;1.87;;
52878;SDS011;38747;53.140;6.498;2023-12-29T05:41:44;20.63;;;1.95;;
52878;SDS011;38747;53.140;6.498;2023-12-29T05:44:10;10.90;;;1.50;;
52878;SDS011;38747;53.140;6.498;2023-12-29T05:46:36;10.80;;;1.92;;
52878;SDS011;38747;53.140;6.498;2023-12-29T05:49:01;10.37;;;2.00;;
52878;SDS011;38747;53.140;6.498;2023-12-29T05:51:27;17.37;;;2.17;;
52878;SDS011;38747;53.140;6.498;2023-12-29T05:53:53;12.47;;;2.00;;
52878;SDS011;38747;53.140;6.498;2023-12-29T05:56:18;13.23;;;1.70;;
52878;SDS011;38747;53.140;6.498;2023-12-29T05:58:45;18.87;;;2.30;;
52878;SDS011;38747;53.140;6.498;2023-12-29T06:01:10;12.48;;;1.85;;
52878;SDS011;38747;53.140;6.498;2023-12-29T06:03:36;14.13;;;1.60;;
52878;SDS011;38747;53.140;6.498;2023-12-29T06:06:02;13.23;;;1.85;;
52878;SDS011;38747;53.140;6.498;2023-12-29T06:08:28;11.38;;;1.58;;
52878;SDS011;38747;53.140;6.498;2023-12-29T06:10:54;12.30;;;1.90;;
52878;SDS011;38747;53.140;6.498;2023-12-29T06:13:19;13.20;;;2.10;;
52878;SDS011;38747;53.140;6.498;2023-12-29T06:15:45;11.40;;;1.37;;
52878;SDS011;38747;53.140;6.498;2023-12-29T06:18:11;11.25;;;1.88;;
52878;SDS011;38747;53.140;6.498;2023-12-29T06:20:36;14.50;;;2.00;;
52878;SDS011;38747;53.140;6.498;2023-12-29T06:23:02;17.70;;;1.83;;
52878;SDS011;38747;53.140;6.498;2023-12-29T06:25:28;15.70;;;1.80;;
52878;SDS011;38747;53.140;6.498;2023-12-29T06:27:53;13.98;;;1.88;;
52878;SDS011;38747;53.140;6.498;2023-12-29T06:30:20;11.40;;;1.40;;
52878;SDS011;38747;53.140;6.498;2023-12-29T06:32:45;11.37;;;1.57;;
52878;SDS011;38747;53.140;6.498;2023-12-29T06:35:11;16.33;;;1.90;;
52878;SDS011;38747;53.140;6.498;2023-12-29T06:37:37;7.30;;;1.70;;
52878;SDS011;38747;53.140;6.498;2023-12-29T06:40:07;17.48;;;1.60;;
52878;SDS011;38747;53.140;6.498;2023-12-29T06:42:33;11.07;;;1.70;;
52878;SDS011;38747;53.140;6.498;2023-12-29T06:44:58;17.73;;;1.60;;
52878;SDS011;38747;53.140;6.498;2023-12-29T06:47:24;18.20;;;2.00;;
52878;SDS011;38747;53.140;6.498;2023-12-29T06:49:50;11.80;;;1.80;;
52878;SDS011;38747;53.140;6.498;2023-12-29T06:52:16;11.90;;;1.42;;
52878;SDS011;38747;53.140;6.498;2023-12-29T06:54:41;13.63;;;1.60;;
52878;SDS011;38747;53.140;6.498;2023-12-29T06:57:07;16.53;;;1.50;;
52878;SDS011;38747;53.140;6.498;2023-12-29T06:59:33;17.27;;;2.30;;
52878;SDS011;38747;53.140;6.498;2023-12-29T07:01:58;12.20;;;1.90;;
52878;SDS011;38747;53.140;6.498;2023-12-29T07:04:24;10.50;;;1.60;;
52878;SDS011;38747;53.140;6.498;2023-12-29T07:06:50;15.47;;;1.80;;
52878;SDS011;38747;53.140;6.498;2023-12-29T07:09:16;12.52;;;1.80;;
52878;SDS011;38747;53.140;6.498;2023-12-29T07:11:41;18.27;;;2.10;;
52878;SDS011;38747;53.140;6.498;2023-12-29T07:14:11;12.98;;;1.65;;
52878;SDS011;38747;53.140;6.498;2023-12-29T07:16:37;12.93;;;1.77;;
52878;SDS011;38747;53.140;6.498;2023-12-29T07:19:03;15.63;;;1.93;;
52878;SDS011;38747;53.140;6.498;2023-12-29T07:21:28;14.27;;;1.90;;
52878;SDS011;38747;53.140;6.498;2023-12-29T07:23:54;19.67;;;2.30;;
52878;SDS011;38747;53.140;6.498;2023-12-29T07:26:20;12.83;;;1.60;;
52878;SDS011;38747;53.140;6.498;2023-12-29T07:28:45;16.50;;;1.88;;
52878;SDS011;38747;53.140;6.498;2023-12-29T07:31:11;13.53;;;1.70;;
52878;SDS011;38747;53.140;6.498;2023-12-29T07:33:37;12.75;;;2.25;;
52878;SDS011;38747;53.140;6.498;2023-12-29T07:36:03;11.65;;;1.88;;
52878;SDS011;38747;53.140;6.498;2023-12-29T07:38:30;12.33;;;1.80;;
52878;SDS011;38747;53.140;6.498;2023-12-29T07:40:55;13.35;;;1.35;;
52878;SDS011;38747;53.140;6.498;2023-12-29T07:43:21;15.07;;;1.77;;
52878;SDS011;38747;53.140;6.498;2023-12-29T07:45:47;16.45;;;1.98;;
52878;SDS011;38747;53.140;6.498;2023-12-29T07:48:12;11.73;;;1.57;;
52878;SDS011;38747;53.140;6.498;2023-12-29T07:50:38;14.98;;;2.15;;
52878;SDS011;38747;53.140;6.498;2023-12-29T07:53:04;19.53;;;2.80;;
52878;SDS011;38747;53.140;6.498;2023-12-29T07:55:31;15.50;;;1.75;;
52878;SDS011;38747;53.140;6.498;2023-12-29T07:57:56;16.73;;;2.15;;
52878;SDS011;38747;53.140;6.498;2023-12-29T08:00:22;18.83;;;2.33;;
52878;SDS011;38747;53.140;6.498;2023-12-29T08:02:48;19.50;;;2.60;;
52878;SDS011;38747;53.140;6.498;2023-12-29T08:05:14;16.95;;;1.80;;
52878;SDS011;38747;53.140;6.498;2023-12-29T08:07:40;17.30;;;2.57;;
52878;SDS011;38747;53.140;6.498;2023-12-29T08:10:06;19.58;;;2.10;;
52878;SDS011;38747;53.140;6.498;2023-12-29T08:12:32;18.83;;;1.90;;
52878;SDS011;38747;53.140;6.498;2023-12-29T08:14:59;18.13;;;2.27;;
52878;SDS011;38747;53.140;6.498;2023-12-29T08:17:25;12.98;;;1.70;;
52878;SDS011;38747;53.140;6.498;2023-12-29T08:19:51;16.55;;;1.73;;
52878;SDS011;38747;53.140;6.498;2023-12-29T08:22:16;11.80;;;1.63;;
52878;SDS011;38747;53.140;6.498;2023-12-29T08:24:43;16.13;;;1.80;;
52878;SDS011;38747;53.140;6.498;2023-12-29T08:27:08;12.93;;;1.83;;
52878;SDS011;38747;53.140;6.498;2023-12-29T08:29:35;16.00;;;2.45;;
52878;SDS011;38747;53.140;6.498;2023-12-29T08:32:01;15.13;;;2.40;;
52878;SDS011;38747;53.140;6.498;2023-12-29T08:34:27;12.68;;;2.25;;
52878;SDS011;38747;53.140;6.498;2023-12-29T08:36:53;17.57;;;2.10;;
52878;SDS011;38747;53.140;6.498;2023-12-29T08:39:18;13.63;;;1.80;;
52878;SDS011;38747;53.140;6.498;2023-12-29T08:41:44;16.50;;;1.90;;
52878;SDS011;38747;53.140;6.498;2023-12-29T08:44:09;20.77;;;2.10;;
52878;SDS011;38747;53.140;6.498;2023-12-29T08:46:35;15.40;;;1.87;;
52878;SDS011;38747;53.140;6.498;2023-12-29T08:49:01;20.13;;;2.58;;
52878;SDS011;38747;53.140;6.498;2023-12-29T08:51:27;12.67;;;2.00;;
52878;SDS011;38747;53.140;6.498;2023-12-29T08:53:53;15.90;;;2.05;;
52878;SDS011;38747;53.140;6.498;2023-12-29T08:56:19;14.35;;;2.65;;
52878;SDS011;38747;53.140;6.498;2023-12-29T08:58:45;14.00;;;2.00;;
52878;SDS011;38747;53.140;6.498;2023-12-29T09:01:11;17.75;;;1.75;;
52878;SDS011;38747;53.140;6.498;2023-12-29T09:03:37;17.47;;;2.07;;
52878;SDS011;38747;53.140;6.498;2023-12-29T09:06:03;22.88;;;2.58;;
52878;SDS011;38747;53.140;6.498;2023-12-29T09:08:29;17.38;;;2.28;;
52878;SDS011;38747;53.140;6.498;2023-12-29T09:10:55;16.75;;;2.30;;
52878;SDS011;38747;53.140;6.498;2023-12-29T09:13:21;17.13;;;2.40;;
52878;SDS011;38747;53.140;6.498;2023-12-29T09:15:50;18.65;;;2.15;;
52878;SDS011;38747;53.140;6.498;2023-12-29T09:18:15;12.20;;;1.37;;
52878;SDS011;38747;53.140;6.498;2023-12-29T09:20:41;14.32;;;1.88;;
52878;SDS011;38747;53.140;6.498;2023-12-29T09:23:07;11.37;;;1.77;;
52878;SDS011;38747;53.140;6.498;2023-12-29T09:25:32;15.63;;;1.95;;
52878;SDS011;38747;53.140;6.498;2023-12-29T09:27:58;15.43;;;1.43;;
52878;SDS011;38747;53.140;6.498;2023-12-29T09:30:23;15.63;;;1.90;;
52878;SDS011;38747;53.140;6.498;2023-12-29T09:32:49;14.83;;;1.60;;
52878;SDS011;38747;53.140;6.498;2023-12-29T09:35:15;10.35;;;1.75;;
52878;SDS011;38747;53.140;6.498;2023-12-29T09:37:42;18.07;;;2.00;;
52878;SDS011;38747;53.140;6.498;2023-12-29T09:40:09;14.77;;;1.90;;
52878;SDS011;38747;53.140;6.498;2023-12-29T09:42:35;13.57;;;1.58;;
52878;SDS011;38747;53.140;6.498;2023-12-29T09:45:03;19.92;;;2.15;;
52878;SDS011;38747;53.140;6.498;2023-12-29T09:47:35;11.13;;;1.70;;
52878;SDS011;38747;53.140;6.498;2023-12-29T09:50:07;14.63;;;2.00;;
52878;SDS011;38747;53.140;6.498;2023-12-29T09:52:37;15.88;;;1.65;;
52878;SDS011;38747;53.140;6.498;2023-12-29T09:55:04;15.25;;;1.73;;
52878;SDS011;38747;53.140;6.498;2023-12-29T09:57:32;15.38;;;1.50;;
52878;SDS011;38747;53.140;6.498;2023-12-29T09:59:58;15.73;;;1.80;;
52878;SDS011;38747;53.140;6.498;2023-12-29T10:02:24;14.85;;;2.17;;
52878;SDS011;38747;53.140;6.498;2023-12-29T10:04:50;12.73;;;2.25;;
52878;SDS011;38747;53.140;6.498;2023-12-29T10:07:25;15.07;;;1.73;;
52878;SDS011;38747;53.140;6.498;2023-12-29T10:09:55;13.77;;;1.80;;
52878;SDS011;38747;53.140;6.498;2023-12-29T10:12:23;16.80;;;1.88;;
52878;SDS011;38747;53.140;6.498;2023-12-29T10:17:52;15.00;;;2.23;;
52878;SDS011;38747;53.140;6.498;2023-12-29T10:23:43;13.32;;;1.52;;
52878;SDS011;38747;53.140;6.498;2023-12-29T10:26:21;8.73;;;1.80;;
52878;SDS011;38747;53.140;6.498;2023-12-29T10:28:48;9.85;;;1.27;;
52878;SDS011;38747;53.140;6.498;2023-12-29T10:31:14;11.20;;;1.53;;
52878;SDS011;38747;53.140;6.498;2023-12-29T10:33:41;8.88;;;1.35;;
52878;SDS011;38747;53.140;6.498;2023-12-29T10:36:06;10.37;;;1.53;;
52878;SDS011;38747;53.140;6.498;2023-12-29T10:38:34;11.38;;;1.50;;
52878;SDS011;38747;53.140;6.498;2023-12-29T10:41:10;11.05;;;1.38;;
52878;SDS011;38747;53.140;6.498;2023-12-29T10:43:43;11.25;;;1.48;;
52878;SDS011;38747;53.140;6.498;2023-12-29T10:46:10;12.05;;;1.25;;
52878;SDS011;38747;53.140;6.498;2023-12-29T10:48:37;10.07;;;1.53;;
52878;SDS011;38747;53.140;6.498;2023-12-29T10:51:03;11.23;;;1.67;;
52878;SDS011;38747;53.140;6.498;2023-12-29T10:53:30;10.52;;;1.20;;
52878;SDS011;38747;53.140;6.498;2023-12-29T10:55:57;12.32;;;1.40;;
52878;SDS011;38747;53.140;6.498;2023-12-29T10:58:25;12.57;;;1.88;;
52878;SDS011;38747;53.140;6.498;2023-12-29T11:00:54;15.37;;;1.43;;
52878;SDS011;38747;53.140;6.498;2023-12-29T11:03:20;10.50;;;1.70;;
52878;SDS011;38747;53.140;6.498;2023-12-29T11:05:46;8.80;;;1.30;;
52878;SDS011;38747;53.140;6.498;2023-12-29T11:08:19;9.40;;;1.40;;
52878;SDS011;38747;53.140;6.498;2023-12-29T11:10:48;9.50;;;1.20;;
52878;SDS011;38747;53.140;6.498;2023-12-29T11:13:14;7.45;;;1.20;;
52878;SDS011;38747;53.140;6.498;2023-12-29T11:15:41;9.55;;;1.23;;
52878;SDS011;38747;53.140;6.498;2023-12-29T11:18:12;8.88;;;1.27;;
52878;SDS011;38747;53.140;6.498;2023-12-29T11:20:39;11.57;;;1.67;;
52878;SDS011;38747;53.140;6.498;2023-12-29T11:23:06;10.38;;;2.03;;
52878;SDS011;38747;53.140;6.498;2023-12-29T11:25:33;10.18;;;1.30;;
52878;SDS011;38747;53.140;6.498;2023-12-29T11:27:59;10.15;;;1.33;;
52878;SDS011;38747;53.140;6.498;2023-12-29T11:30:26;10.05;;;1.33;;
52878;SDS011;38747;53.140;6.498;2023-12-29T11:32:56;11.27;;;2.03;;
52878;SDS011;38747;53.140;6.498;2023-12-29T11:35:28;7.43;;;1.10;;
52878;SDS011;38747;53.140;6.498;2023-12-29T11:40:44;6.35;;;1.00;;
52878;SDS011;38747;53.140;6.498;2023-12-29T11:43:13;10.13;;;1.30;;
52878;SDS011;38747;53.140;6.498;2023-12-29T11:45:41;7.60;;;1.27;;
52878;SDS011;38747;53.140;6.498;2023-12-29T11:48:07;8.30;;;1.05;;
52878;SDS011;38747;53.140;6.498;2023-12-29T11:50:36;8.13;;;1.42;;
52878;SDS011;38747;53.140;6.498;2023-12-29T11:53:04;11.00;;;1.40;;
52878;SDS011;38747;53.140;6.498;2023-12-29T11:55:36;8.77;;;1.15;;
52878;SDS011;38747;53.140;6.498;2023-12-29T11:58:04;11.32;;;1.25;;
52878;SDS011;38747;53.140;6.498;2023-12-29T12:00:47;9.53;;;1.30;;
52878;SDS011;38747;53.140;6.498;2023-12-29T12:03:17;7.53;;;1.15;;
52878;SDS011;38747;53.140;6.498;2023-12-29T12:05:50;9.40;;;1.05;;
52878;SDS011;38747;53.140;6.498;2023-12-29T12:08:26;10.95;;;1.25;;
52878;SDS011;38747;53.140;6.498;2023-12-29T12:10:53;7.38;;;1.10;;
52878;SDS011;38747;53.140;6.498;2023-12-29T12:13:41;8.03;;;1.20;;
52878;SDS011;38747;53.140;6.498;2023-12-29T12:16:08;11.07;;;1.13;;
52878;SDS011;38747;53.140;6.498;2023-12-29T12:18:33;8.27;;;1.40;;
52878;SDS011;38747;53.140;6.498;2023-12-29T12:20:59;7.27;;;1.10;;
52878;SDS011;38747;53.140;6.498;2023-12-29T12:23:28;8.48;;;1.17;;
52878;SDS011;38747;53.140;6.498;2023-12-29T12:25:58;7.53;;;0.90;;
52878;SDS011;38747;53.140;6.498;2023-12-29T12:28:26;12.10;;;1.30;;
52878;SDS011;38747;53.140;6.498;2023-12-29T12:30:52;10.37;;;1.20;;
52878;SDS011;38747;53.140;6.498;2023-12-29T12:33:29;8.98;;;1.27;;
52878;SDS011;38747;53.140;6.498;2023-12-29T12:36:01;8.40;;;1.57;;
52878;SDS011;38747;53.140;6.498;2023-12-29T12:38:27;9.48;;;1.30;;
52878;SDS011;38747;53.140;6.498;2023-12-29T12:40:55;7.93;;;1.00;;
52878;SDS011;38747;53.140;6.498;2023-12-29T12:43:21;9.65;;;1.40;;
52878;SDS011;38747;53.140;6.498;2023-12-29T12:45:59;9.23;;;1.35;;
52878;SDS011;38747;53.140;6.498;2023-12-29T12:50:52;11.45;;;1.35;;
52878;SDS011;38747;53.140;6.498;2023-12-29T12:53:21;8.48;;;1.30;;
52878;SDS011;38747;53.140;6.498;2023-12-29T12:55:48;8.23;;;1.50;;
52878;SDS011;38747;53.140;6.498;2023-12-29T12:58:15;11.50;;;1.83;;
52878;SDS011;38747;53.140;6.498;2023-12-29T13:00:46;11.70;;;1.00;;
52878;SDS011;38747;53.140;6.498;2023-12-29T13:03:12;6.07;;;1.38;;
52878;SDS011;38747;53.140;6.498;2023-12-29T13:05:38;12.80;;;0.95;;
52878;SDS011;38747;53.140;6.498;2023-12-29T13:08:05;13.40;;;1.87;;
52878;SDS011;38747;53.140;6.498;2023-12-29T13:10:34;14.13;;;1.60;;
52878;SDS011;38747;53.140;6.498;2023-12-29T13:13:06;13.50;;;1.30;;
52878;SDS011;38747;53.140;6.498;2023-12-29T13:15:31;12.50;;;1.30;;
52878;SDS011;38747;53.140;6.498;2023-12-29T13:17:57;9.38;;;1.20;;
52878;SDS011;38747;53.140;6.498;2023-12-29T13:20:23;11.13;;;1.25;;
52878;SDS011;38747;53.140;6.498;2023-12-29T13:22:49;9.90;;;1.33;;
52878;SDS011;38747;53.140;6.498;2023-12-29T13:25:19;12.55;;;1.50;;
52878;SDS011;38747;53.140;6.498;2023-12-29T13:27:46;9.85;;;1.27;;
52878;SDS011;38747;53.140;6.498;2023-12-29T13:30:13;10.13;;;1.58;;
52878;SDS011;38747;53.140;6.498;2023-12-29T13:32:39;12.13;;;1.65;;
52878;SDS011;38747;53.140;6.498;2023-12-29T13:35:11;10.60;;;1.30;;
52878;SDS011;38747;53.140;6.498;2023-12-29T13:37:55;11.85;;;1.73;;
52878;SDS011;38747;53.140;6.498;2023-12-29T13:40:34;9.27;;;1.30;;
52878;SDS011;38747;53.140;6.498;2023-12-29T13:43:04;14.32;;;1.38;;
52878;SDS011;38747;53.140;6.498;2023-12-29T13:45:32;8.95;;;1.42;;
52878;SDS011;38747;53.140;6.498;2023-12-29T13:47:59;10.43;;;1.53;;
52878;SDS011;38747;53.140;6.498;2023-12-29T13:50:26;6.75;;;1.00;;
52878;SDS011;38747;53.140;6.498;2023-12-29T13:52:52;8.90;;;1.30;;
52878;SDS011;38747;53.140;6.498;2023-12-29T13:55:24;16.10;;;1.63;;
52878;SDS011;38747;53.140;6.498;2023-12-29T13:57:53;17.00;;;1.23;;
52878;SDS011;38747;53.140;6.498;2023-12-29T14:00:19;9.13;;;1.35;;
52878;SDS011;38747;53.140;6.498;2023-12-29T14:08:04;6.85;;;1.20;;
52878;SDS011;38747;53.140;6.498;2023-12-29T14:10:34;7.47;;;0.80;;
52878;SDS011;38747;53.140;6.498;2023-12-29T14:13:08;10.35;;;1.35;;
52878;SDS011;38747;53.140;6.498;2023-12-29T14:15:41;7.80;;;1.05;;
52878;SDS011;38747;53.140;6.498;2023-12-29T14:21:02;9.63;;;1.20;;
52878;SDS011;38747;53.140;6.498;2023-12-29T14:23:55;9.23;;;0.90;;
52878;SDS011;38747;53.140;6.498;2023-12-29T14:29:21;15.13;;;1.45;;
52878;SDS011;38747;53.140;6.498;2023-12-29T14:31:48;14.00;;;1.95;;
52878;SDS011;38747;53.140;6.498;2023-12-29T14:34:18;8.45;;;1.20;;
52878;SDS011;38747;53.140;6.498;2023-12-29T14:36:44;7.30;;;1.07;;
52878;SDS011;38747;53.140;6.498;2023-12-29T14:39:11;14.55;;;1.80;;
52878;SDS011;38747;53.140;6.498;2023-12-29T14:41:37;9.40;;;1.33;;
52878;SDS011;38747;53.140;6.498;2023-12-29T14:44:02;9.75;;;1.15;;
52878;SDS011;38747;53.140;6.498;2023-12-29T14:46:28;5.60;;;1.07;;
52878;SDS011;38747;53.140;6.498;2023-12-29T14:48:56;10.95;;;1.80;;
52878;SDS011;38747;53.140;6.498;2023-12-29T14:51:24;12.35;;;1.63;;
52878;SDS011;38747;53.140;6.498;2023-12-29T14:53:50;8.73;;;1.17;;
52878;SDS011;38747;53.140;6.498;2023-12-29T14:56:16;13.45;;;2.05;;
52878;SDS011;38747;53.140;6.498;2023-12-29T14:58:42;13.75;;;1.58;;
52878;SDS011;38747;53.140;6.498;2023-12-29T15:01:08;9.57;;;1.00;;
52878;SDS011;38747;53.140;6.498;2023-12-29T15:03:34;11.70;;;1.75;;